Koushinmaru No.5 — JL6695 — position and weather

sailwx.info

Track history (hours):
 
Tides and Currents Weather Stations Pressure Air Temp Water Temp Dewpoint Dewpoint Depression Visibility Wind Speed Wind Dir Waves Ship Positions

Koushinmaru No.5

Last reported at 2016-Feb-08 06:31 UTC. Time now 2016-Feb-10 10:49 UTC.
Position N 34°37' E 134°57'.

Length 75 m; draft 5 m.

Type: Cargo ship. MMSI: 431301703.

Date/timePositionNaut miles runAvg speedWind from/ knotsBaromVisibWave heightAir tempDewpointWater temp
2016-Feb-08 06:31N 34°37' E 134°57'8 8.3
2016-Feb-08 05:33N 34°36' E 135°07'1211.6
2016-Feb-08 04:33N 34°36' E 135°21'5 2.5
2016-Feb-08 02:28N 34°34' E 135°27'0 0.0
2016-Feb-08 01:32N 34°34' E 135°27'0 0.0
2016-Feb-08 00:33N 34°34' E 135°27'3 3.0
2016-Feb-07 23:33N 34°36' E 135°24'1110.9
2016-Feb-07 22:33N 34°29' E 135°14'1212.0
2016-Feb-07 21:32N 34°20' E 135°05'5 5.6
2016-Feb-07 20:33N 34°15' E 135°07'0 0.0
2016-Feb-07 11:22N 34°15' E 135°07'0 0.0
2016-Feb-07 10:34N 34°15' E 135°07'0 0.0
2016-Feb-07 09:33N 34°15' E 135°07'0 0.3
2016-Feb-07 08:34N 34°14' E 135°07'252 7.8
2016-Feb-06 00:14N 34°59' E 140°09'35 9.6
2016-Feb-05 20:33N 35°24' E 140°39'33 7.8
2016-Feb-05 16:19N 35°57' E 140°42'2 0.1
2016-Feb-04 13:12N 35°56' E 140°40'0 0.3
2016-Feb-04 12:33N 35°56' E 140°40'0 0.0
2016-Feb-04 11:33N 35°56' E 140°40'0 0.0
2016-Feb-04 10:33N 35°56' E 140°40'0 0.0
2016-Feb-03 23:34N 35°56' E 140°40'4 3.5
2016-Feb-03 22:30N 35°57' E 140°44'28 9.4
2016-Feb-03 19:33N 35°29' E 140°45'4410.8
2016-Feb-03 15:29N 34°58' E 140°08'1010.3
2016-Feb-03 14:32N 34°53' E 139°58'1110.3
2016-Feb-03 13:31N 34°53' E 139°45'1110.3
2016-Feb-03 12:29N 35°03' E 139°43'1111.6
2016-Feb-03 11:34N 35°14' E 139°46'1110.8
2016-Feb-03 10:34N 35°24' E 139°43'1111.2
2016-Feb-03 09:34N 35°32' E 139°53'7 6.8
2016-Feb-03 08:34N 35°37' E 139°48'0 0.0
2016-Feb-03 00:12N 35°37' E 139°48'0 0.0
2016-Feb-01 07:23N 35°37' E 139°48'0 0.0
2016-Feb-01 06:33N 35°37' E 139°48'0 0.2
2016-Feb-01 05:33N 35°37' E 139°48'9 8.6
2016-Feb-01 04:33N 35°29' E 139°52'10 9.9
2016-Feb-01 03:33N 35°22' E 139°45'9 8.9
2016-Feb-01 02:33N 35°13' E 139°47'244 8.6
2016-Jan-30 22:14N 34°05' E 135°03'811.2
2016-Jan-30 21:32N 34°13' E 135°05'3 0.1
2016-Jan-29 14:33N 34°15' E 135°07'0 0.3
2016-Jan-29 13:33N 34°15' E 135°07'  
Track history (hours):
 
Tides and Currents Weather Stations Pressure Air Temp Water Temp Dewpoint Dewpoint Depression Visibility Wind Speed Wind Dir Waves Ship Positions

Koushinmaru No.5

Last reported at 2016-Feb-08 06:31 UTC. Time now 2016-Feb-10 10:49 UTC.
Position N 34°37' E 134°57'.

Length 75 m; draft 5 m.

Type: Cargo ship. MMSI: 431301703.

Date/timePositionNaut miles runAvg speedWind from/ knotsBaromVisibWave heightAir tempDewpointWater temp
2016-Feb-08 06:31N 34°37' E 134°57'8 8.3
2016-Feb-08 05:33N 34°36' E 135°07'1211.6
2016-Feb-08 04:33N 34°36' E 135°21'5 2.5
2016-Feb-08 02:28N 34°34' E 135°27'0 0.0
2016-Feb-08 01:32N 34°34' E 135°27'0 0.0
2016-Feb-08 00:33N 34°34' E 135°27'3 3.0
2016-Feb-07 23:33N 34°36' E 135°24'1110.9
2016-Feb-07 22:33N 34°29' E 135°14'1212.0
2016-Feb-07 21:32N 34°20' E 135°05'5 5.6
2016-Feb-07 20:33N 34°15' E 135°07'0 0.0
2016-Feb-07 11:22N 34°15' E 135°07'0 0.0
2016-Feb-07 10:34N 34°15' E 135°07'0 0.0
2016-Feb-07 09:33N 34°15' E 135°07'0 0.3
2016-Feb-07 08:34N 34°14' E 135°07'252 7.8
2016-Feb-06 00:14N 34°59' E 140°09'35 9.6
2016-Feb-05 20:33N 35°24' E 140°39'33 7.8
2016-Feb-05 16:19N 35°57' E 140°42'2 0.1
2016-Feb-04 13:12N 35°56' E 140°40'0 0.3
2016-Feb-04 12:33N 35°56' E 140°40'0 0.0
2016-Feb-04 11:33N 35°56' E 140°40'0 0.0
2016-Feb-04 10:33N 35°56' E 140°40'0 0.0
2016-Feb-03 23:34N 35°56' E 140°40'4 3.5
2016-Feb-03 22:30N 35°57' E 140°44'28 9.4
2016-Feb-03 19:33N 35°29' E 140°45'4410.8
2016-Feb-03 15:29N 34°58' E 140°08'1010.3
2016-Feb-03 14:32N 34°53' E 139°58'1110.3
2016-Feb-03 13:31N 34°53' E 139°45'1110.3
2016-Feb-03 12:29N 35°03' E 139°43'1111.6
2016-Feb-03 11:34N 35°14' E 139°46'1110.8
2016-Feb-03 10:34N 35°24' E 139°43'1111.2
2016-Feb-03 09:34N 35°32' E 139°53'7 6.8
2016-Feb-03 08:34N 35°37' E 139°48'0 0.0
2016-Feb-03 00:12N 35°37' E 139°48'0 0.0
2016-Feb-01 07:23N 35°37' E 139°48'0 0.0
2016-Feb-01 06:33N 35°37' E 139°48'0 0.2
2016-Feb-01 05:33N 35°37' E 139°48'9 8.6
2016-Feb-01 04:33N 35°29' E 139°52'10 9.9
2016-Feb-01 03:33N 35°22' E 139°45'9 8.9
2016-Feb-01 02:33N 35°13' E 139°47'244 8.6
2016-Jan-30 22:14N 34°05' E 135°03'811.2
2016-Jan-30 21:32N 34°13' E 135°05'3 0.1
2016-Jan-29 14:33N 34°15' E 135°07'0 0.3
2016-Jan-29 13:33N 34°15' E 135°07'  

Dump ship's entire track history